sensor_id;sensor_type;location;lat;lon;timestamp;temperature;humidity
67529;DHT22;54366;51.980;5.856;2022-10-16T00:01:28;13.20;85.60
67529;DHT22;54366;51.980;5.856;2022-10-16T00:03:56;13.20;85.50
67529;DHT22;54366;51.980;5.856;2022-10-16T00:06:23;13.20;85.50
67529;DHT22;54366;51.980;5.856;2022-10-16T00:08:49;13.10;85.60
67529;DHT22;54366;51.980;5.856;2022-10-16T00:11:21;13.10;85.60
67529;DHT22;54366;51.980;5.856;2022-10-16T00:13:50;13.10;86.20
67529;DHT22;54366;51.980;5.856;2022-10-16T00:16:18;13.10;85.60
67529;DHT22;54366;51.980;5.856;2022-10-16T00:18:45;13.10;85.50
67529;DHT22;54366;51.980;5.856;2022-10-16T00:21:15;13.10;85.50
67529;DHT22;54366;51.980;5.856;2022-10-16T00:23:41;13.00;85.40
67529;DHT22;54366;51.980;5.856;2022-10-16T00:26:11;13.00;85.40
67529;DHT22;54366;51.980;5.856;2022-10-16T00:28:38;13.00;85.40
67529;DHT22;54366;51.980;5.856;2022-10-16T00:31:09;13.00;85.30
67529;DHT22;54366;51.980;5.856;2022-10-16T00:33:37;13.00;85.40
67529;DHT22;54366;51.980;5.856;2022-10-16T00:36:05;13.00;85.40
67529;DHT22;54366;51.980;5.856;2022-10-16T00:38:32;13.00;85.30
67529;DHT22;54366;51.980;5.856;2022-10-16T00:40:59;13.00;85.30
67529;DHT22;54366;51.980;5.856;2022-10-16T00:43:44;13.00;85.40
67529;DHT22;54366;51.980;5.856;2022-10-16T00:46:21;13.00;85.40
67529;DHT22;54366;51.980;5.856;2022-10-16T00:51:36;13.00;85.50
67529;DHT22;54366;51.980;5.856;2022-10-16T00:54:27;13.00;85.60
67529;DHT22;54366;51.980;5.856;2022-10-16T00:56:53;12.90;85.60
67529;DHT22;54366;51.980;5.856;2022-10-16T00:59:30;12.90;85.60
67529;DHT22;54366;51.980;5.856;2022-10-16T01:01:57;12.90;85.60
67529;DHT22;54366;51.980;5.856;2022-10-16T01:04:25;12.90;85.60
67529;DHT22;54366;51.980;5.856;2022-10-16T01:07:02;12.90;85.60
67529;DHT22;54366;51.980;5.856;2022-10-16T01:12:14;12.90;85.80
67529;DHT22;54366;51.980;5.856;2022-10-16T01:15:00;13.00;85.90
67529;DHT22;54366;51.980;5.856;2022-10-16T01:17:35;13.00;85.90
67529;DHT22;54366;51.980;5.856;2022-10-16T01:20:26;13.00;85.90
67529;DHT22;54366;51.980;5.856;2022-10-16T01:26:09;13.00;85.90
67529;DHT22;54366;51.980;5.856;2022-10-16T01:31:31;13.00;86.00
67529;DHT22;54366;51.980;5.856;2022-10-16T01:34:14;13.10;86.00
67529;DHT22;54366;51.980;5.856;2022-10-16T01:36:53;13.00;86.00
67529;DHT22;54366;51.980;5.856;2022-10-16T01:39:28;13.00;86.00
67529;DHT22;54366;51.980;5.856;2022-10-16T01:42:02;13.00;86.10
67529;DHT22;54366;51.980;5.856;2022-10-16T01:44:32;13.00;86.10
67529;DHT22;54366;51.980;5.856;2022-10-16T01:46:59;13.00;86.30
67529;DHT22;54366;51.980;5.856;2022-10-16T01:49:29;13.10;86.30
67529;DHT22;54366;51.980;5.856;2022-10-16T01:51:59;13.00;86.30
67529;DHT22;54366;51.980;5.856;2022-10-16T01:54:28;13.00;86.30
67529;DHT22;54366;51.980;5.856;2022-10-16T01:56:57;13.10;86.30
67529;DHT22;54366;51.980;5.856;2022-10-16T01:59:25;13.10;86.40
67529;DHT22;54366;51.980;5.856;2022-10-16T02:01:58;13.10;86.40
67529;DHT22;54366;51.980;5.856;2022-10-16T02:04:36;13.20;86.40
67529;DHT22;54366;51.980;5.856;2022-10-16T02:07:03;13.20;86.40
67529;DHT22;54366;51.980;5.856;2022-10-16T02:09:30;13.20;86.20
67529;DHT22;54366;51.980;5.856;2022-10-16T02:12:01;13.20;86.40
67529;DHT22;54366;51.980;5.856;2022-10-16T02:14:29;13.20;86.40
67529;DHT22;54366;51.980;5.856;2022-10-16T02:16:56;13.30;86.40
67529;DHT22;54366;51.980;5.856;2022-10-16T02:19:22;13.30;86.40
67529;DHT22;54366;51.980;5.856;2022-10-16T02:21:58;13.30;86.40
67529;DHT22;54366;51.980;5.856;2022-10-16T02:24:34;13.30;86.50
67529;DHT22;54366;51.980;5.856;2022-10-16T02:30:06;13.30;86.40
67529;DHT22;54366;51.980;5.856;2022-10-16T02:32:36;13.30;86.40
67529;DHT22;54366;51.980;5.856;2022-10-16T02:35:04;13.40;86.50
67529;DHT22;54366;51.980;5.856;2022-10-16T02:37:31;13.30;86.40
67529;DHT22;54366;51.980;5.856;2022-10-16T02:39:58;13.40;86.40
67529;DHT22;54366;51.980;5.856;2022-10-16T02:42:31;13.40;86.50
67529;DHT22;54366;51.980;5.856;2022-10-16T02:44:58;13.40;86.50
67529;DHT22;54366;51.980;5.856;2022-10-16T02:47:25;13.40;86.50
67529;DHT22;54366;51.980;5.856;2022-10-16T02:49:52;13.40;86.50
67529;DHT22;54366;51.980;5.856;2022-10-16T02:52:18;13.40;86.50
67529;DHT22;54366;51.980;5.856;2022-10-16T02:54:45;13.40;86.60
67529;DHT22;54366;51.980;5.856;2022-10-16T02:57:11;13.40;86.50
67529;DHT22;54366;51.980;5.856;2022-10-16T02:59:37;13.30;86.50
67529;DHT22;54366;51.980;5.856;2022-10-16T03:02:04;13.30;86.60
67529;DHT22;54366;51.980;5.856;2022-10-16T03:04:30;13.30;86.60
67529;DHT22;54366;51.980;5.856;2022-10-16T03:06:56;13.30;86.50
67529;DHT22;54366;51.980;5.856;2022-10-16T03:09:22;13.30;86.60
67529;DHT22;54366;51.980;5.856;2022-10-16T03:11:49;13.30;86.60
67529;DHT22;54366;51.980;5.856;2022-10-16T03:14:15;13.30;86.50
67529;DHT22;54366;51.980;5.856;2022-10-16T03:16:42;13.30;86.60
67529;DHT22;54366;51.980;5.856;2022-10-16T03:19:09;13.40;86.50
67529;DHT22;54366;51.980;5.856;2022-10-16T03:21:35;13.40;86.60
67529;DHT22;54366;51.980;5.856;2022-10-16T03:24:01;13.40;86.70
67529;DHT22;54366;51.980;5.856;2022-10-16T03:26:27;13.40;86.60
67529;DHT22;54366;51.980;5.856;2022-10-16T03:28:54;13.40;86.70
67529;DHT22;54366;51.980;5.856;2022-10-16T03:31:20;13.40;86.60
67529;DHT22;54366;51.980;5.856;2022-10-16T03:33:46;13.30;86.50
67529;DHT22;54366;51.980;5.856;2022-10-16T03:36:12;13.40;86.70
67529;DHT22;54366;51.980;5.856;2022-10-16T03:38:38;13.40;86.70
67529;DHT22;54366;51.980;5.856;2022-10-16T03:41:05;13.40;86.70
67529;DHT22;54366;51.980;5.856;2022-10-16T03:43:34;13.40;86.70
67529;DHT22;54366;51.980;5.856;2022-10-16T03:46:00;13.30;86.70
67529;DHT22;54366;51.980;5.856;2022-10-16T03:48:26;13.30;86.80
67529;DHT22;54366;51.980;5.856;2022-10-16T03:50:52;13.30;86.80
67529;DHT22;54366;51.980;5.856;2022-10-16T03:53:19;13.30;86.80
67529;DHT22;54366;51.980;5.856;2022-10-16T03:55:45;13.30;86.70
67529;DHT22;54366;51.980;5.856;2022-10-16T03:58:11;13.40;86.80
67529;DHT22;54366;51.980;5.856;2022-10-16T04:00:42;13.30;86.80
67529;DHT22;54366;51.980;5.856;2022-10-16T04:03:08;13.30;86.70
67529;DHT22;54366;51.980;5.856;2022-10-16T04:05:35;13.30;86.80
67529;DHT22;54366;51.980;5.856;2022-10-16T04:08:01;13.30;86.80
67529;DHT22;54366;51.980;5.856;2022-10-16T04:10:27;13.30;86.80
67529;DHT22;54366;51.980;5.856;2022-10-16T04:12:53;13.30;86.80
67529;DHT22;54366;51.980;5.856;2022-10-16T04:15:22;13.30;86.80
67529;DHT22;54366;51.980;5.856;2022-10-16T04:17:49;13.30;86.90
67529;DHT22;54366;51.980;5.856;2022-10-16T04:20:15;13.30;86.80
67529;DHT22;54366;51.980;5.856;2022-10-16T04:22:41;13.30;86.70
67529;DHT22;54366;51.980;5.856;2022-10-16T04:25:08;13.30;86.70
67529;DHT22;54366;51.980;5.856;2022-10-16T04:27:34;13.30;86.50
67529;DHT22;54366;51.980;5.856;2022-10-16T04:30:01;13.30;86.60
67529;DHT22;54366;51.980;5.856;2022-10-16T04:32:27;13.30;86.50
67529;DHT22;54366;51.980;5.856;2022-10-16T04:34:53;13.40;86.70
67529;DHT22;54366;51.980;5.856;2022-10-16T04:37:24;13.40;86.60
67529;DHT22;54366;51.980;5.856;2022-10-16T04:39:51;13.40;86.60
67529;DHT22;54366;51.980;5.856;2022-10-16T04:42:18;13.40;86.60
67529;DHT22;54366;51.980;5.856;2022-10-16T04:44:45;13.40;86.50
67529;DHT22;54366;51.980;5.856;2022-10-16T04:47:11;13.40;86.50
67529;DHT22;54366;51.980;5.856;2022-10-16T04:49:38;13.40;86.50
67529;DHT22;54366;51.980;5.856;2022-10-16T04:52:04;13.40;86.50
67529;DHT22;54366;51.980;5.856;2022-10-16T04:54:31;13.40;86.50
67529;DHT22;54366;51.980;5.856;2022-10-16T04:56:57;13.40;86.50
67529;DHT22;54366;51.980;5.856;2022-10-16T04:59:23;13.40;86.60
67529;DHT22;54366;51.980;5.856;2022-10-16T05:01:49;13.40;86.70
67529;DHT22;54366;51.980;5.856;2022-10-16T05:04:16;13.40;86.70
67529;DHT22;54366;51.980;5.856;2022-10-16T05:06:42;13.40;86.70
67529;DHT22;54366;51.980;5.856;2022-10-16T05:09:09;13.30;86.80
67529;DHT22;54366;51.980;5.856;2022-10-16T05:11:35;13.40;86.70
67529;DHT22;54366;51.980;5.856;2022-10-16T05:14:02;13.40;86.80
67529;DHT22;54366;51.980;5.856;2022-10-16T05:16:29;13.30;86.70
67529;DHT22;54366;51.980;5.856;2022-10-16T05:18:56;13.30;86.70
67529;DHT22;54366;51.980;5.856;2022-10-16T05:21:22;13.30;86.70
67529;DHT22;54366;51.980;5.856;2022-10-16T05:23:48;13.30;86.70
67529;DHT22;54366;51.980;5.856;2022-10-16T05:26:15;13.30;86.70
67529;DHT22;54366;51.980;5.856;2022-10-16T05:28:41;13.30;86.70
67529;DHT22;54366;51.980;5.856;2022-10-16T05:31:08;13.30;86.70
67529;DHT22;54366;51.980;5.856;2022-10-16T05:33:35;13.30;86.70
67529;DHT22;54366;51.980;5.856;2022-10-16T05:36:06;13.30;86.80
67529;DHT22;54366;51.980;5.856;2022-10-16T05:38:34;13.30;86.70
67529;DHT22;54366;51.980;5.856;2022-10-16T05:41:00;13.20;86.70
67529;DHT22;54366;51.980;5.856;2022-10-16T05:43:30;13.20;86.80
67529;DHT22;54366;51.980;5.856;2022-10-16T05:45:59;13.20;86.70
67529;DHT22;54366;51.980;5.856;2022-10-16T05:48:26;13.20;86.70
67529;DHT22;54366;51.980;5.856;2022-10-16T05:51:00;13.20;86.70
67529;DHT22;54366;51.980;5.856;2022-10-16T05:53:27;13.10;86.60
67529;DHT22;54366;51.980;5.856;2022-10-16T05:55:57;13.10;86.30
67529;DHT22;54366;51.980;5.856;2022-10-16T05:58:25;13.00;86.30
67529;DHT22;54366;51.980;5.856;2022-10-16T06:01:02;13.00;86.20
67529;DHT22;54366;51.980;5.856;2022-10-16T06:03:29;12.90;86.20
67529;DHT22;54366;51.980;5.856;2022-10-16T06:05:55;12.90;86.20
67529;DHT22;54366;51.980;5.856;2022-10-16T06:08:22;12.90;86.30
67529;DHT22;54366;51.980;5.856;2022-10-16T06:11:00;12.80;86.40
67529;DHT22;54366;51.980;5.856;2022-10-16T06:13:26;12.90;86.50
67529;DHT22;54366;51.980;5.856;2022-10-16T06:15:52;12.90;86.50
67529;DHT22;54366;51.980;5.856;2022-10-16T06:18:19;12.80;86.40
67529;DHT22;54366;51.980;5.856;2022-10-16T06:20:45;12.80;86.50
67529;DHT22;54366;51.980;5.856;2022-10-16T06:23:11;12.80;86.60
67529;DHT22;54366;51.980;5.856;2022-10-16T06:25:37;12.90;86.80
67529;DHT22;54366;51.980;5.856;2022-10-16T06:28:03;12.80;86.80
67529;DHT22;54366;51.980;5.856;2022-10-16T06:30:30;12.80;86.90
67529;DHT22;54366;51.980;5.856;2022-10-16T06:32:56;12.90;86.90
67529;DHT22;54366;51.980;5.856;2022-10-16T06:35:22;12.90;86.80
67529;DHT22;54366;51.980;5.856;2022-10-16T06:37:48;13.00;87.10
67529;DHT22;54366;51.980;5.856;2022-10-16T06:40:15;13.00;87.10
67529;DHT22;54366;51.980;5.856;2022-10-16T06:42:41;13.00;87.00
67529;DHT22;54366;51.980;5.856;2022-10-16T06:45:08;13.00;87.00
67529;DHT22;54366;51.980;5.856;2022-10-16T06:47:34;13.00;87.00
67529;DHT22;54366;51.980;5.856;2022-10-16T06:50:00;13.10;87.10
67529;DHT22;54366;51.980;5.856;2022-10-16T06:52:29;13.20;87.00
67529;DHT22;54366;51.980;5.856;2022-10-16T06:54:56;13.20;86.90
67529;DHT22;54366;51.980;5.856;2022-10-16T06:57:22;13.20;86.80
67529;DHT22;54366;51.980;5.856;2022-10-16T06:59:48;13.30;87.00
67529;DHT22;54366;51.980;5.856;2022-10-16T07:02:14;13.30;87.00
67529;DHT22;54366;51.980;5.856;2022-10-16T07:04:40;13.30;87.00
67529;DHT22;54366;51.980;5.856;2022-10-16T07:07:07;13.30;86.90
67529;DHT22;54366;51.980;5.856;2022-10-16T07:09:33;13.40;86.80
67529;DHT22;54366;51.980;5.856;2022-10-16T07:11:59;13.40;86.80
67529;DHT22;54366;51.980;5.856;2022-10-16T07:14:25;13.40;86.80
67529;DHT22;54366;51.980;5.856;2022-10-16T07:16:51;13.40;86.70
67529;DHT22;54366;51.980;5.856;2022-10-16T07:19:18;13.50;87.40
67529;DHT22;54366;51.980;5.856;2022-10-16T07:21:44;13.50;86.80
67529;DHT22;54366;51.980;5.856;2022-10-16T07:24:14;13.50;86.80
67529;DHT22;54366;51.980;5.856;2022-10-16T07:26:41;13.60;86.70
67529;DHT22;54366;51.980;5.856;2022-10-16T07:29:19;13.60;86.60
67529;DHT22;54366;51.980;5.856;2022-10-16T07:31:47;13.70;86.60
67529;DHT22;54366;51.980;5.856;2022-10-16T07:34:15;13.70;86.80
67529;DHT22;54366;51.980;5.856;2022-10-16T07:36:41;13.70;86.70
67529;DHT22;54366;51.980;5.856;2022-10-16T07:39:08;13.80;86.80
67529;DHT22;54366;51.980;5.856;2022-10-16T07:41:35;13.90;86.80
67529;DHT22;54366;51.980;5.856;2022-10-16T07:44:03;13.90;86.70
67529;DHT22;54366;51.980;5.856;2022-10-16T07:46:29;14.00;86.80
67529;DHT22;54366;51.980;5.856;2022-10-16T07:48:56;14.10;86.70
67529;DHT22;54366;51.980;5.856;2022-10-16T07:51:24;14.10;86.80
67529;DHT22;54366;51.980;5.856;2022-10-16T07:53:52;14.20;86.80
67529;DHT22;54366;51.980;5.856;2022-10-16T07:56:19;14.30;87.00
67529;DHT22;54366;51.980;5.856;2022-10-16T07:58:46;14.30;86.90
67529;DHT22;54366;51.980;5.856;2022-10-16T08:01:14;14.40;87.00
67529;DHT22;54366;51.980;5.856;2022-10-16T08:03:49;14.50;87.00
67529;DHT22;54366;51.980;5.856;2022-10-16T08:06:16;14.60;87.10
67529;DHT22;54366;51.980;5.856;2022-10-16T08:08:43;14.60;86.90
67529;DHT22;54366;51.980;5.856;2022-10-16T08:11:09;14.70;87.00
67529;DHT22;54366;51.980;5.856;2022-10-16T08:13:36;14.70;86.90
67529;DHT22;54366;51.980;5.856;2022-10-16T08:16:03;14.80;86.80
67529;DHT22;54366;51.980;5.856;2022-10-16T08:18:38;14.90;86.70
67529;DHT22;54366;51.980;5.856;2022-10-16T08:21:05;15.00;86.80
67529;DHT22;54366;51.980;5.856;2022-10-16T08:23:32;15.10;86.70
67529;DHT22;54366;51.980;5.856;2022-10-16T08:26:04;15.20;86.50
67529;DHT22;54366;51.980;5.856;2022-10-16T08:28:31;15.20;86.30
67529;DHT22;54366;51.980;5.856;2022-10-16T08:31:08;15.30;85.60
67529;DHT22;54366;51.980;5.856;2022-10-16T08:33:35;15.30;85.20
67529;DHT22;54366;51.980;5.856;2022-10-16T08:36:03;15.30;85.00
67529;DHT22;54366;51.980;5.856;2022-10-16T08:38:30;15.30;85.20
67529;DHT22;54366;51.980;5.856;2022-10-16T08:49:22;15.40;84.80
67529;DHT22;54366;51.980;5.856;2022-10-16T08:51:50;15.40;84.40
67529;DHT22;54366;51.980;5.856;2022-10-16T08:54:26;15.50;84.40
67529;DHT22;54366;51.980;5.856;2022-10-16T08:56:56;15.50;84.40
67529;DHT22;54366;51.980;5.856;2022-10-16T08:59:22;15.50;84.40
67529;DHT22;54366;51.980;5.856;2022-10-16T09:01:51;15.60;84.10
67529;DHT22;54366;51.980;5.856;2022-10-16T09:07:08;15.70;83.70
67529;DHT22;54366;51.980;5.856;2022-10-16T09:12:45;15.80;83.40
67529;DHT22;54366;51.980;5.856;2022-10-16T09:17:59;16.00;82.40
67529;DHT22;54366;51.980;5.856;2022-10-16T09:20:45;16.00;82.40
67529;DHT22;54366;51.980;5.856;2022-10-16T09:23:19;16.10;82.20
67529;DHT22;54366;51.980;5.856;2022-10-16T09:25:47;16.10;81.60
67529;DHT22;54366;51.980;5.856;2022-10-16T09:28:15;16.20;81.50
67529;DHT22;54366;51.980;5.856;2022-10-16T09:30:42;16.20;81.60
67529;DHT22;54366;51.980;5.856;2022-10-16T09:33:10;16.30;81.60
67529;DHT22;54366;51.980;5.856;2022-10-16T09:35:43;16.40;81.20
67529;DHT22;54366;51.980;5.856;2022-10-16T09:38:30;16.50;80.90
67529;DHT22;54366;51.980;5.856;2022-10-16T09:40:59;16.50;80.00
67529;DHT22;54366;51.980;5.856;2022-10-16T09:46:32;16.60;80.00
67529;DHT22;54366;51.980;5.856;2022-10-16T09:49:01;16.70;79.60
67529;DHT22;54366;51.980;5.856;2022-10-16T09:51:36;16.70;79.50
67529;DHT22;54366;51.980;5.856;2022-10-16T09:54:18;16.80;79.30
67529;DHT22;54366;51.980;5.856;2022-10-16T09:56:44;16.80;78.80
67529;DHT22;54366;51.980;5.856;2022-10-16T09:59:20;16.80;79.10
67529;DHT22;54366;51.980;5.856;2022-10-16T10:01:49;16.90;79.40
67529;DHT22;54366;51.980;5.856;2022-10-16T10:04:18;17.00;79.40
67529;DHT22;54366;51.980;5.856;2022-10-16T10:06:52;17.10;79.50
67529;DHT22;54366;51.980;5.856;2022-10-16T10:19:38;17.60;78.70
67529;DHT22;54366;51.980;5.856;2022-10-16T10:22:18;17.70;78.40
67529;DHT22;54366;51.980;5.856;2022-10-16T10:38:16;18.40;76.40
67529;DHT22;54366;51.980;5.856;2022-10-16T10:45:54;18.70;73.30
67529;DHT22;54366;51.980;5.856;2022-10-16T10:57:41;19.20;73.60
67529;DHT22;54366;51.980;5.856;2022-10-16T11:02:48;19.50;72.00
67529;DHT22;54366;51.980;5.856;2022-10-16T11:05:52;19.50;69.30
67529;DHT22;54366;51.980;5.856;2022-10-16T11:08:32;19.60;69.00
67529;DHT22;54366;51.980;5.856;2022-10-16T11:11:16;19.60;68.40
67529;DHT22;54366;51.980;5.856;2022-10-16T11:14:02;19.60;68.40
67529;DHT22;54366;51.980;5.856;2022-10-16T11:16:35;19.60;68.70
67529;DHT22;54366;51.980;5.856;2022-10-16T11:19:21;19.50;67.30
67529;DHT22;54366;51.980;5.856;2022-10-16T11:22:04;19.40;66.00
67529;DHT22;54366;51.980;5.856;2022-10-16T11:25:04;19.40;66.70
67529;DHT22;54366;51.980;5.856;2022-10-16T11:27:47;19.50;67.50
67529;DHT22;54366;51.980;5.856;2022-10-16T11:30:20;19.60;66.40
67529;DHT22;54366;51.980;5.856;2022-10-16T11:32:59;19.50;65.50
67529;DHT22;54366;51.980;5.856;2022-10-16T11:41:29;19.60;66.00
67529;DHT22;54366;51.980;5.856;2022-10-16T11:47:08;19.60;63.80
67529;DHT22;54366;51.980;5.856;2022-10-16T11:49:37;19.70;64.90
67529;DHT22;54366;51.980;5.856;2022-10-16T11:54:45;19.60;65.90
67529;DHT22;54366;51.980;5.856;2022-10-16T11:57:27;19.70;65.80
67529;DHT22;54366;51.980;5.856;2022-10-16T12:08:30;20.30;62.50
67529;DHT22;54366;51.980;5.856;2022-10-16T12:13:47;20.50;62.00
67529;DHT22;54366;51.980;5.856;2022-10-16T12:18:42;20.60;62.70
67529;DHT22;54366;51.980;5.856;2022-10-16T12:21:10;20.70;63.00
67529;DHT22;54366;51.980;5.856;2022-10-16T12:23:51;20.70;62.50
67529;DHT22;54366;51.980;5.856;2022-10-16T12:26:29;20.70;62.40
67529;DHT22;54366;51.980;5.856;2022-10-16T12:31:46;20.70;62.70
67529;DHT22;54366;51.980;5.856;2022-10-16T12:34:29;20.70;62.40
67529;DHT22;54366;51.980;5.856;2022-10-16T12:39:35;20.40;62.30
67529;DHT22;54366;51.980;5.856;2022-10-16T12:42:05;20.40;62.10
67529;DHT22;54366;51.980;5.856;2022-10-16T12:44:33;20.40;61.50
67529;DHT22;54366;51.980;5.856;2022-10-16T12:47:02;20.40;60.70
67529;DHT22;54366;51.980;5.856;2022-10-16T12:51:55;20.50;60.40
67529;DHT22;54366;51.980;5.856;2022-10-16T12:54:29;20.50;60.90
67529;DHT22;54366;51.980;5.856;2022-10-16T13:08:40;20.20;62.70
67529;DHT22;54366;51.980;5.856;2022-10-16T13:16:29;20.10;62.30
67529;DHT22;54366;51.980;5.856;2022-10-16T13:19:35;20.10;63.20
67529;DHT22;54366;51.980;5.856;2022-10-16T13:27:35;19.90;62.10
67529;DHT22;54366;51.980;5.856;2022-10-16T13:30:19;19.90;61.50
67529;DHT22;54366;51.980;5.856;2022-10-16T13:32:48;19.90;62.30
67529;DHT22;54366;51.980;5.856;2022-10-16T13:35:21;19.80;62.40
67529;DHT22;54366;51.980;5.856;2022-10-16T13:37:48;19.80;63.00
67529;DHT22;54366;51.980;5.856;2022-10-16T13:40:23;19.80;62.80
67529;DHT22;54366;51.980;5.856;2022-10-16T13:42:50;19.80;63.30
67529;DHT22;54366;51.980;5.856;2022-10-16T13:45:21;19.80;63.20
67529;DHT22;54366;51.980;5.856;2022-10-16T13:47:48;19.80;63.70
67529;DHT22;54366;51.980;5.856;2022-10-16T13:50:17;19.80;63.40
67529;DHT22;54366;51.980;5.856;2022-10-16T13:52:44;19.70;63.60
67529;DHT22;54366;51.980;5.856;2022-10-16T13:55:15;19.70;64.80
67529;DHT22;54366;51.980;5.856;2022-10-16T13:57:42;19.70;64.30
67529;DHT22;54366;51.980;5.856;2022-10-16T14:00:26;19.70;64.40
67529;DHT22;54366;51.980;5.856;2022-10-16T14:03:01;19.80;64.50
67529;DHT22;54366;51.980;5.856;2022-10-16T14:05:28;19.70;63.20
67529;DHT22;54366;51.980;5.856;2022-10-16T14:07:55;19.70;63.60
67529;DHT22;54366;51.980;5.856;2022-10-16T14:10:32;19.70;63.50
67529;DHT22;54366;51.980;5.856;2022-10-16T14:13:04;19.70;62.80
67529;DHT22;54366;51.980;5.856;2022-10-16T14:15:33;19.60;62.00
67529;DHT22;54366;51.980;5.856;2022-10-16T14:18:00;19.60;62.80
67529;DHT22;54366;51.980;5.856;2022-10-16T14:20:29;19.60;63.10
67529;DHT22;54366;51.980;5.856;2022-10-16T14:23:03;19.50;62.50
67529;DHT22;54366;51.980;5.856;2022-10-16T14:25:31;19.50;63.50
67529;DHT22;54366;51.980;5.856;2022-10-16T14:30:25;19.50;64.10
67529;DHT22;54366;51.980;5.856;2022-10-16T14:35:28;19.50;63.70
67529;DHT22;54366;51.980;5.856;2022-10-16T14:37:56;19.50;64.10
67529;DHT22;54366;51.980;5.856;2022-10-16T14:40:31;19.50;64.20
67529;DHT22;54366;51.980;5.856;2022-10-16T14:42:58;19.60;64.60
67529;DHT22;54366;51.980;5.856;2022-10-16T14:45:27;19.60;64.50
67529;DHT22;54366;51.980;5.856;2022-10-16T14:47:56;19.60;64.50
67529;DHT22;54366;51.980;5.856;2022-10-16T14:50:23;19.50;64.80
67529;DHT22;54366;51.980;5.856;2022-10-16T14:52:49;19.50;64.60
67529;DHT22;54366;51.980;5.856;2022-10-16T14:55:16;19.40;64.70
67529;DHT22;54366;51.980;5.856;2022-10-16T14:57:44;19.30;64.70
67529;DHT22;54366;51.980;5.856;2022-10-16T15:00:20;19.30;64.80
67529;DHT22;54366;51.980;5.856;2022-10-16T15:02:48;19.30;65.20
67529;DHT22;54366;51.980;5.856;2022-10-16T15:05:26;19.20;65.50
67529;DHT22;54366;51.980;5.856;2022-10-16T15:07:55;19.20;65.90
67529;DHT22;54366;51.980;5.856;2022-10-16T15:10:23;19.20;66.40
67529;DHT22;54366;51.980;5.856;2022-10-16T15:12:50;19.20;66.20
67529;DHT22;54366;51.980;5.856;2022-10-16T15:17:55;19.20;65.90
67529;DHT22;54366;51.980;5.856;2022-10-16T15:20:24;19.20;66.50
67529;DHT22;54366;51.980;5.856;2022-10-16T15:22:50;19.20;66.20
67529;DHT22;54366;51.980;5.856;2022-10-16T15:25:27;19.10;66.10
67529;DHT22;54366;51.980;5.856;2022-10-16T15:27:55;19.10;66.00
67529;DHT22;54366;51.980;5.856;2022-10-16T15:30:21;19.10;65.70
67529;DHT22;54366;51.980;5.856;2022-10-16T15:32:47;19.00;66.60
67529;DHT22;54366;51.980;5.856;2022-10-16T15:35:13;18.90;67.50
67529;DHT22;54366;51.980;5.856;2022-10-16T15:37:40;18.90;68.00
67529;DHT22;54366;51.980;5.856;2022-10-16T15:40:06;18.80;68.40
67529;DHT22;54366;51.980;5.856;2022-10-16T15:42:33;18.80;68.90
67529;DHT22;54366;51.980;5.856;2022-10-16T15:44:59;18.70;69.00
67529;DHT22;54366;51.980;5.856;2022-10-16T15:47:25;18.60;69.60
67529;DHT22;54366;51.980;5.856;2022-10-16T15:49:51;18.50;69.80
67529;DHT22;54366;51.980;5.856;2022-10-16T15:52:17;18.50;69.90
67529;DHT22;54366;51.980;5.856;2022-10-16T15:54:44;18.50;70.40
67529;DHT22;54366;51.980;5.856;2022-10-16T15:57:10;18.50;70.60
67529;DHT22;54366;51.980;5.856;2022-10-16T15:59:36;18.40;70.90
67529;DHT22;54366;51.980;5.856;2022-10-16T16:02:02;18.30;71.00
67529;DHT22;54366;51.980;5.856;2022-10-16T16:04:32;18.30;71.30
67529;DHT22;54366;51.980;5.856;2022-10-16T16:06:58;18.30;71.60
67529;DHT22;54366;51.980;5.856;2022-10-16T16:09:24;18.20;71.80
67529;DHT22;54366;51.980;5.856;2022-10-16T16:11:50;18.20;71.90
67529;DHT22;54366;51.980;5.856;2022-10-16T16:14:18;18.10;72.00
67529;DHT22;54366;51.980;5.856;2022-10-16T16:16:44;18.10;72.10
67529;DHT22;54366;51.980;5.856;2022-10-16T16:19:10;18.10;72.20
67529;DHT22;54366;51.980;5.856;2022-10-16T16:21:36;18.00;72.30
67529;DHT22;54366;51.980;5.856;2022-10-16T16:24:03;18.00;72.50
67529;DHT22;54366;51.980;5.856;2022-10-16T16:26:34;17.90;72.60
67529;DHT22;54366;51.980;5.856;2022-10-16T16:29:03;17.90;72.90
67529;DHT22;54366;51.980;5.856;2022-10-16T16:31:31;17.80;73.00
67529;DHT22;54366;51.980;5.856;2022-10-16T16:33:58;17.80;73.10
67529;DHT22;54366;51.980;5.856;2022-10-16T16:36:25;17.80;73.00
67529;DHT22;54366;51.980;5.856;2022-10-16T16:38:51;17.70;72.90
67529;DHT22;54366;51.980;5.856;2022-10-16T16:41:20;17.70;73.10
67529;DHT22;54366;51.980;5.856;2022-10-16T16:43:47;17.70;73.30
67529;DHT22;54366;51.980;5.856;2022-10-16T16:46:14;17.60;73.50
67529;DHT22;54366;51.980;5.856;2022-10-16T16:48:41;17.60;73.60
67529;DHT22;54366;51.980;5.856;2022-10-16T16:51:13;17.50;73.70
67529;DHT22;54366;51.980;5.856;2022-10-16T16:53:45;17.40;74.00
67529;DHT22;54366;51.980;5.856;2022-10-16T16:56:12;17.40;74.20
67529;DHT22;54366;51.980;5.856;2022-10-16T16:58:38;17.40;74.40
67529;DHT22;54366;51.980;5.856;2022-10-16T17:01:05;17.20;74.40
67529;DHT22;54366;51.980;5.856;2022-10-16T17:03:33;17.30;74.60
67529;DHT22;54366;51.980;5.856;2022-10-16T17:06:07;17.20;74.50
67529;DHT22;54366;51.980;5.856;2022-10-16T17:08:35;17.20;74.60
67529;DHT22;54366;51.980;5.856;2022-10-16T17:11:01;17.20;74.50
67529;DHT22;54366;51.980;5.856;2022-10-16T17:13:30;17.10;74.50
67529;DHT22;54366;51.980;5.856;2022-10-16T17:15:57;17.10;74.60
67529;DHT22;54366;51.980;5.856;2022-10-16T17:18:23;17.10;74.60
67529;DHT22;54366;51.980;5.856;2022-10-16T17:20:50;17.00;74.60
67529;DHT22;54366;51.980;5.856;2022-10-16T17:23:18;16.90;74.60
67529;DHT22;54366;51.980;5.856;2022-10-16T17:25:45;16.90;74.70
67529;DHT22;54366;51.980;5.856;2022-10-16T17:28:12;16.90;74.70
67529;DHT22;54366;51.980;5.856;2022-10-16T17:30:40;16.80;74.60
67529;DHT22;54366;51.980;5.856;2022-10-16T17:33:07;16.80;74.70
67529;DHT22;54366;51.980;5.856;2022-10-16T17:35:37;16.80;74.70
67529;DHT22;54366;51.980;5.856;2022-10-16T17:38:04;16.80;74.70
67529;DHT22;54366;51.980;5.856;2022-10-16T17:40:30;16.70;74.90
67529;DHT22;54366;51.980;5.856;2022-10-16T17:42:57;16.70;74.80
67529;DHT22;54366;51.980;5.856;2022-10-16T17:45:23;16.70;74.90
67529;DHT22;54366;51.980;5.856;2022-10-16T17:47:49;16.70;75.00
67529;DHT22;54366;51.980;5.856;2022-10-16T17:50:15;16.60;75.50
67529;DHT22;54366;51.980;5.856;2022-10-16T17:52:42;16.60;75.10
67529;DHT22;54366;51.980;5.856;2022-10-16T17:55:08;16.60;75.20
67529;DHT22;54366;51.980;5.856;2022-10-16T17:57:35;16.60;75.20
67529;DHT22;54366;51.980;5.856;2022-10-16T18:00:01;16.60;75.30
67529;DHT22;54366;51.980;5.856;2022-10-16T18:02:30;16.50;75.30